Terminal Aerodrome Forecast
Issued by NWS Springfield, MO

Home | Current Version | Previous Version | Text Only | Print | Product List | Glossary On
Versions: 1 2 3 4 5 6 7 8 9 10 11 12 13 14 15 16 17 18 19 20 21 22 23 24
000
FTUS43 KSGF 251500 AAA
TAFSGF
TAF AMD
KSGF 251533Z 2516/2612 31018G28KT P6SM -SHRA OVC025
     FM251900 31016G25KT P6SM -RA OVC015
     FM260000 34014G20KT P6SM OVC015
     FM260200 33010KT P6SM OVC025=

USA.gov is the U.S. government's official web portal to all federal, state and local government web resources and services.